Time;durP1;ratioP1;P1;durP2;ratioP2;P2;SDS_P1;SDS_P2;PMS_P1;PMS_P2;Temp;Humidity;BMP_temperature;BMP_pressure;BME280_temperature;BME280_humidity;BME280_pressure;Samples;Min_cycle;Max_cycle;Signal;HPM_P1;HPM_P2
2023/04/01 00:01:33;;;;;;;12.98;7.10;;;9.40;99.90;;;;;;5009554;28;20026;-74
2023/04/01 00:04:01;;;;;;;15.20;7.57;;;9.50;99.90;;;;;;5006606;28;20044;-75
2023/04/01 00:06:27;;;;;;;12.30;7.05;;;9.50;99.90;;;;;;5005798;28;20113;-74
2023/04/01 00:08:53;;;;;;;11.48;6.80;;;9.20;99.90;;;;;;5007257;28;20112;-75
2023/04/01 00:11:19;;;;;;;17.27;8.48;;;9.00;99.90;;;;;;5008886;28;20124;-75
2023/04/01 00:13:45;;;;;;;11.65;7.10;;;9.00;99.90;;;;;;5008434;28;20029;-74
2023/04/01 00:16:11;;;;;;;15.57;8.75;;;9.00;99.90;;;;;;5008334;28;20076;-75
2023/04/01 00:18:36;;;;;;;17.30;7.07;;;8.80;99.90;;;;;;5008517;28;20080;-74
2023/04/01 00:21:02;;;;;;;11.50;6.55;;;8.80;99.90;;;;;;5002158;28;20034;-75
2023/04/01 00:23:28;;;;;;;11.80;7.22;;;8.70;99.90;;;;;;5007049;28;20041;-75
2023/04/01 00:25:53;;;;;;;10.60;7.13;;;8.70;99.90;;;;;;5007252;28;20080;-76
2023/04/01 00:28:20;;;;;;;10.45;7.28;;;8.80;99.90;;;;;;5014060;28;20026;-74
2023/04/01 00:30:46;;;;;;;11.35;8.23;;;8.80;99.90;;;;;;5007139;28;20145;-75
2023/04/01 00:33:12;;;;;;;16.48;9.02;;;8.80;99.90;;;;;;5008246;28;20021;-75
2023/04/01 00:35:38;;;;;;;12.98;8.25;;;8.80;99.90;;;;;;5000658;28;20083;-75
2023/04/01 00:38:04;;;;;;;11.43;6.68;;;8.60;99.90;;;;;;5007761;28;20026;-75
2023/04/01 00:40:42;;;;;;;12.23;7.45;;;8.50;99.90;;;;;;5007357;28;20848;-74
2023/04/01 00:43:19;;;;;;;11.90;7.32;;;8.50;99.90;;;;;;5017812;28;20042;-75
2023/04/01 00:45:46;;;;;;;13.82;7.88;;;8.40;99.90;;;;;;5005801;28;20496;-74
2023/04/01 00:48:20;;;;;;;10.38;7.68;;;8.20;99.90;;;;;;5007921;28;20551;-76
2023/04/01 00:50:54;;;;;;;11.70;6.82;;;8.30;99.90;;;;;;5006893;28;20036;-75
2023/04/01 00:53:20;;;;;;;10.70;7.70;;;8.30;99.90;;;;;;5007516;28;20476;-75
2023/04/01 00:55:53;;;;;;;12.20;6.72;;;8.10;99.90;;;;;;5013305;28;20030;-75
2023/04/01 00:58:23;;;;;;;10.90;7.65;;;8.00;99.90;;;;;;5006867;28;20454;-75
2023/04/01 01:00:51;;;;;;;10.32;6.10;;;8.10;99.90;;;;;;5008138;28;20555;-75
2023/04/01 01:03:17;;;;;;;11.80;7.55;;;8.00;99.90;;;;;;5004583;28;20447;-75
2023/04/01 01:06:05;;;;;;;11.88;7.30;;;8.10;99.90;;;;;;5005396;28;20034;-75
2023/04/01 01:08:56;;;;;;;10.50;6.72;;;8.00;99.90;;;;;;5001698;28;20031;-74
2023/04/01 01:11:31;;;;;;;9.88;5.53;;;7.90;99.90;;;;;;5005515;28;20056;-74
2023/04/01 01:14:06;;;;;;;10.43;6.40;;;7.70;99.90;;;;;;5005892;28;20539;-75
2023/04/01 01:16:43;;;;;;;13.10;7.43;;;7.80;99.90;;;;;;5006776;28;20058;-74
2023/04/01 01:19:30;;;;;;;12.55;6.22;;;7.80;99.90;;;;;;5008045;28;20530;-76
2023/04/01 01:22:05;;;;;;;10.82;6.85;;;7.70;99.90;;;;;;5004335;28;20029;-76
2023/04/01 01:25:10;;;;;;;11.35;6.38;;;7.90;99.90;;;;;;5007111;28;20042;-75
2023/04/01 01:27:39;;;;;;;11.35;6.72;;;8.10;99.90;;;;;;5006277;28;20539;-74
2023/04/01 01:30:20;;;;;;;10.25;6.15;;;8.00;99.90;;;;;;5007169;28;20099;-75
2023/04/01 01:33:06;;;;;;;10.98;6.18;;;8.00;99.90;;;;;;5005240;28;20037;-75
2023/04/01 01:35:48;;;;;;;10.48;5.95;;;8.10;99.90;;;;;;5007130;28;20029;-73
2023/04/01 01:38:17;;;;;;;13.88;7.40;;;7.80;99.90;;;;;;5009178;28;20037;-74
2023/04/01 01:40:47;;;;;;;13.65;6.65;;;7.80;99.90;;;;;;5012210;28;20030;-74
2023/04/01 01:43:17;;;;;;;10.00;5.75;;;7.80;99.90;;;;;;5009739;28;20844;-74
2023/04/01 01:45:48;;;;;;;16.30;7.03;;;7.80;99.90;;;;;;5010366;28;20113;-73
2023/04/01 01:48:16;;;;;;;9.85;6.28;;;7.90;99.90;;;;;;5010851;28;20029;-74
2023/04/01 01:50:44;;;;;;;10.65;6.85;;;8.00;99.90;;;;;;5012056;28;20038;-73
2023/04/01 01:53:12;;;;;;;10.38;6.18;;;7.90;99.90;;;;;;5009302;28;20030;-74
2023/04/01 01:55:41;;;;;;;10.68;6.65;;;7.80;99.90;;;;;;5010024;28;20037;-74
2023/04/01 01:58:12;;;;;;;10.27;6.68;;;7.80;99.90;;;;;;5005847;28;20030;-74
2023/04/01 02:00:40;;;;;;;11.30;6.70;;;7.80;99.90;;;;;;5010256;28;20084;-74
2023/04/01 02:03:06;;;;;;;8.32;5.85;;;7.60;99.90;;;;;;5009616;28;20420;-73
2023/04/01 02:05:32;;;;;;;9.55;5.50;;;7.70;99.90;;;;;;5008964;28;20032;-74
2023/04/01 02:08:07;;;;;;;10.88;6.18;;;7.90;99.90;;;;;;5011257;28;20140;-74
2023/04/01 02:10:35;;;;;;;;;;;8.20;99.90;;;;;;5009942;28;20380;-74
2023/04/01 02:13:07;;;;;;;7.00;4.47;;;8.00;99.90;;;;;;5016149;28;19956;-74
2023/04/01 02:15:41;;;;;;;10.23;4.63;;;8.00;99.90;;;;;;5006878;28;20029;-73
2023/04/01 02:18:07;;;;;;;8.27;4.80;;;7.90;99.90;;;;;;5010425;28;20504;-74
2023/04/01 02:20:35;;;;;;;10.10;5.32;;;8.10;99.90;;;;;;5010228;28;20129;-74
2023/04/01 02:23:02;;;;;;;11.40;5.53;;;8.00;99.90;;;;;;5009067;28;20053;-74
2023/04/01 02:25:30;;;;;;;8.23;4.55;;;8.00;99.90;;;;;;5009518;28;20120;-74
2023/04/01 02:27:58;;;;;;;8.48;4.72;;;7.90;99.90;;;;;;5010896;28;20069;-74
2023/04/01 02:30:26;;;;;;;8.95;4.35;;;7.90;99.90;;;;;;5009631;28;20042;-74
2023/04/01 02:32:53;;;;;;;10.70;4.53;;;7.50;99.90;;;;;;5009297;28;20032;-74
2023/04/01 02:35:19;;;;;;;8.93;3.80;;;7.50;99.90;;;;;;5010861;28;20038;-74
2023/04/01 02:37:48;;;;;;;7.25;4.20;;;7.40;99.90;;;;;;5009494;28;20079;-74
2023/04/01 02:40:15;;;;;;;9.73;4.75;;;7.30;99.90;;;;;;5009523;28;20484;-74
2023/04/01 02:42:41;;;;;;;7.50;4.88;;;7.30;99.90;;;;;;5010073;28;20112;-74
2023/04/01 02:45:08;;;;;;;7.03;4.25;;;7.50;99.90;;;;;;5009097;28;20050;-72
2023/04/01 02:47:34;;;;;;;6.40;4.20;;;7.60;99.90;;;;;;5008837;28;20377;-74
2023/04/01 02:49:59;;;;;;;6.57;4.05;;;7.50;99.90;;;;;;5006187;28;20052;-74
2023/04/01 02:52:26;;;;;;;9.05;3.97;;;7.10;99.90;;;;;;5009815;28;20037;-74
2023/04/01 02:54:52;;;;;;;7.15;4.38;;;7.10;99.90;;;;;;5009403;28;20038;-75
2023/04/01 02:57:18;;;;;;;9.13;4.63;;;7.30;99.90;;;;;;5009739;28;20022;-74
2023/04/01 02:59:44;;;;;;;9.20;5.25;;;7.40;99.90;;;;;;5004579;28;20088;-74
2023/04/01 03:02:09;;;;;;;10.88;5.95;;;7.60;99.90;;;;;;5002172;28;20044;-74
2023/04/01 03:04:35;;;;;;;7.57;3.70;;;7.70;99.90;;;;;;5002788;28;20581;-74
2023/04/01 03:07:01;;;;;;;7.22;3.55;;;7.50;99.90;;;;;;5005526;28;20098;-74
2023/04/01 03:09:28;;;;;;;6.20;3.55;;;7.40;99.90;;;;;;5003358;28;20057;-74
2023/04/01 03:11:54;;;;;;;5.80;3.58;;;7.40;99.90;;;;;;5004375;28;20041;-73
2023/04/01 03:14:20;;;;;;;8.10;3.95;;;7.40;99.90;;;;;;5004693;28;20026;-73
2023/04/01 03:16:46;;;;;;;7.55;3.80;;;7.60;99.90;;;;;;5003141;28;20460;-74
2023/04/01 03:19:12;;;;;;;8.00;4.40;;;7.60;99.90;;;;;;5000758;28;20033;-74
2023/04/01 03:21:38;;;;;;;8.57;4.25;;;7.60;99.90;;;;;;5002670;28;20030;-74
2023/04/01 03:24:04;;;;;;;8.02;4.00;;;7.80;99.90;;;;;;5001847;28;20041;-74
2023/04/01 03:26:29;;;;;;;7.05;4.53;;;7.70;99.90;;;;;;5005161;28;20084;-74
2023/04/01 03:28:55;;;;;;;8.07;5.15;;;7.60;99.90;;;;;;5003087;28;20036;-74
2023/04/01 03:31:21;;;;;;;8.50;4.00;;;8.00;99.90;;;;;;5003202;28;20070;-75
2023/04/01 03:33:47;;;;;;;11.32;5.43;;;7.80;99.90;;;;;;5001940;28;20476;-74
2023/04/01 03:36:12;;;;;;;7.15;4.35;;;7.90;99.90;;;;;;5012539;28;20029;-74
2023/04/01 03:38:40;;;;;;;8.23;4.25;;;7.90;99.90;;;;;;5004509;28;20042;-74
2023/04/01 03:41:06;;;;;;;9.75;5.00;;;8.00;99.90;;;;;;5004672;28;20057;-74
2023/04/01 03:43:32;;;;;;;9.50;5.47;;;8.00;99.90;;;;;;5003807;28;20076;-74
2023/04/01 03:45:58;;;;;;;7.40;4.40;;;8.10;99.90;;;;;;5004067;28;20033;-74
2023/04/01 03:48:25;;;;;;;7.03;4.43;;;8.10;99.90;;;;;;5000363;28;20026;-74
2023/04/01 03:50:51;;;;;;;6.63;3.92;;;8.00;99.90;;;;;;5003322;28;20036;-75
2023/04/01 03:53:17;;;;;;;7.35;3.38;;;7.90;99.90;;;;;;5001654;28;20380;-74
2023/04/01 03:55:43;;;;;;;6.03;3.95;;;7.70;99.90;;;;;;5001366;28;20037;-74
2023/04/01 03:58:09;;;;;;;7.03;4.22;;;7.70;99.90;;;;;;5002324;28;20041;-74
2023/04/01 04:00:35;;;;;;;9.77;4.90;;;7.60;99.90;;;;;;5007743;28;20026;-74
2023/04/01 04:03:01;;;;;;;6.15;3.88;;;7.50;99.90;;;;;;5000723;28;20060;-74
2023/04/01 04:05:27;;;;;;;8.77;3.78;;;7.50;99.90;;;;;;4999940;28;20033;-74
2023/04/01 04:07:53;;;;;;;6.97;3.72;;;7.70;99.90;;;;;;4996624;28;20253;-74
2023/04/01 04:10:19;;;;;;;6.82;4.07;;;7.70;99.90;;;;;;4994032;28;20038;-73
2023/04/01 04:12:45;;;;;;;8.13;3.83;;;7.70;99.90;;;;;;5001008;28;20030;-74
2023/04/01 04:15:12;;;;;;;5.85;3.28;;;7.50;99.90;;;;;;4998175;28;20602;-74
2023/04/01 04:17:38;;;;;;;5.43;2.85;;;7.40;99.90;;;;;;4999867;28;20041;-73
2023/04/01 04:20:04;;;;;;;5.75;3.15;;;7.20;99.90;;;;;;5002870;28;20030;-74
2023/04/01 04:22:29;;;;;;;6.65;3.60;;;7.10;99.90;;;;;;4998775;28;20104;-74
2023/04/01 04:24:55;;;;;;;5.45;3.17;;;7.10;99.90;;;;;;4999421;28;20042;-75
2023/04/01 04:27:21;;;;;;;5.18;2.88;;;7.10;99.90;;;;;;5008200;28;20025;-74
2023/04/01 04:29:46;;;;;;;4.82;3.05;;;7.00;99.90;;;;;;5001410;28;20120;-74
2023/04/01 04:32:12;;;;;;;5.15;3.20;;;7.00;99.90;;;;;;4998979;28;20553;-74
2023/04/01 04:34:38;;;;;;;6.88;3.85;;;6.90;99.90;;;;;;5007433;28;20543;-75
2023/04/01 04:37:04;;;;;;;7.63;4.20;;;7.10;99.90;;;;;;5000981;28;20645;-75
2023/04/01 04:39:29;;;;;;;6.13;3.58;;;6.90;99.90;;;;;;4999838;28;20111;-74
2023/04/01 04:41:55;;;;;;;5.13;3.38;;;6.90;99.90;;;;;;5000669;28;20029;-74
2023/04/01 04:44:21;;;;;;;5.20;2.95;;;6.60;99.90;;;;;;5000185;28;20108;-74
2023/04/01 04:46:47;;;;;;;6.07;3.33;;;6.50;99.90;;;;;;4999476;28;20033;-75
2023/04/01 04:49:13;;;;;;;6.43;4.10;;;6.70;99.90;;;;;;5000449;28;20038;-74
2023/04/01 04:51:39;;;;;;;5.55;3.25;;;6.70;99.90;;;;;;5006765;28;20038;-74
2023/04/01 04:54:06;;;;;;;7.32;3.40;;;7.10;99.90;;;;;;5000327;28;20030;-74
2023/04/01 04:56:32;;;;;;;5.15;3.13;;;7.20;99.90;;;;;;5001834;28;20060;-74
2023/04/01 04:58:58;;;;;;;6.07;3.15;;;7.20;99.90;;;;;;4999431;28;20041;-74
2023/04/01 05:01:24;;;;;;;5.20;2.85;;;7.10;99.90;;;;;;5001069;28;20037;-74
2023/04/01 05:03:50;;;;;;;6.18;3.83;;;7.20;99.90;;;;;;5000354;28;20045;-74
2023/04/01 05:06:16;;;;;;;5.45;2.85;;;6.90;99.90;;;;;;5000423;28;20373;-74
2023/04/01 05:08:44;;;;;;;4.35;2.70;;;6.80;99.90;;;;;;4999577;28;20037;-74
2023/04/01 05:11:13;;;;;;;6.55;3.75;;;6.70;99.90;;;;;;4997064;28;20045;-74
2023/04/01 05:13:38;;;;;;;8.30;2.72;;;6.80;99.90;;;;;;5004695;28;20026;-75
2023/04/01 05:16:08;;;;;;;5.07;2.70;;;6.70;99.90;;;;;;5004816;28;20416;-74
2023/04/01 05:18:34;;;;;;;7.15;3.63;;;6.70;99.90;;;;;;5001861;28;20072;-74
2023/04/01 05:20:59;;;;;;;7.25;3.65;;;6.60;99.90;;;;;;4994400;28;20080;-74
2023/04/01 05:23:25;;;;;;;8.82;3.25;;;6.70;99.90;;;;;;4995027;28;20064;-74
2023/04/01 05:25:52;;;;;;;5.13;3.00;;;6.80;99.90;;;;;;4998223;28;20037;-74
2023/04/01 05:28:19;;;;;;;5.25;3.08;;;6.70;99.90;;;;;;5001394;28;20033;-73
2023/04/01 05:30:45;;;;;;;5.97;2.90;;;6.70;99.90;;;;;;5002211;28;20397;-75
2023/04/01 05:33:12;;;;;;;5.80;3.10;;;6.90;99.90;;;;;;5003334;28;20105;-76
2023/04/01 05:35:38;;;;;;;6.35;3.03;;;7.00;99.90;;;;;;5002065;28;20038;-76
2023/04/01 05:38:04;;;;;;;5.80;2.83;;;7.20;99.90;;;;;;5002330;28;20117;-77
2023/04/01 05:40:31;;;;;;;6.03;2.53;;;7.20;99.90;;;;;;4996645;28;20088;-77
2023/04/01 05:42:57;;;;;;;6.50;3.13;;;7.40;99.90;;;;;;4998110;28;20030;-77
2023/04/01 05:45:25;;;;;;;6.65;2.92;;;7.60;99.90;;;;;;5003845;28;20050;-77
2023/04/01 05:47:50;;;;;;;6.15;2.35;;;7.60;99.90;;;;;;5001644;28;20491;-76
2023/04/01 05:50:16;;;;;;;6.60;2.97;;;7.60;99.90;;;;;;5001138;28;20050;-76
2023/04/01 05:52:42;;;;;;;5.38;2.75;;;7.70;99.90;;;;;;5001377;28;20385;-76
2023/04/01 05:55:08;;;;;;;4.47;2.65;;;7.80;99.90;;;;;;5018118;28;20419;-76
2023/04/01 05:57:34;;;;;;;5.53;3.05;;;7.80;99.90;;;;;;4999298;28;20027;-76
2023/04/01 05:59:59;;;;;;;4.60;2.50;;;7.80;99.90;;;;;;5000087;28;20018;-77
2023/04/01 06:02:25;;;;;;;5.90;2.92;;;7.90;99.90;;;;;;4999401;28;20039;-76
2023/04/01 06:05:14;;;;;;;6.25;3.95;;;8.10;99.90;;;;;;5002947;28;20034;-78
2023/04/01 06:07:40;;;;;;;7.55;2.92;;;8.10;99.90;;;;;;4996713;28;20036;-75
2023/04/01 06:10:13;;;;;;;6.10;3.17;;;8.10;99.90;;;;;;5003196;28;20529;-77
2023/04/01 06:13:06;;;;;;;6.30;3.08;;;8.10;99.90;;;;;;4997020;28;20029;-76
2023/04/01 06:16:02;;;;;;;7.93;2.88;;;8.20;99.90;;;;;;5001703;28;20033;-76
2023/04/01 06:19:10;;;;;;;4.50;2.60;;;8.20;99.90;;;;;;4972840;28;20057;-76
2023/04/01 06:21:55;;;;;;;5.07;2.95;;;8.30;99.90;;;;;;5000227;28;20136;-76
2023/04/01 06:24:26;;;;;;;6.68;3.53;;;8.40;99.90;;;;;;4999990;28;20030;-76
2023/04/01 06:27:20;;;;;;;6.35;3.25;;;8.30;99.90;;;;;;5002344;28;20096;-76
2023/04/01 06:29:52;;;;;;;6.53;3.80;;;8.20;99.90;;;;;;5002391;28;20076;-76
2023/04/01 06:32:42;;;;;;;7.68;3.05;;;8.40;99.90;;;;;;5000991;28;20038;-77
2023/04/01 06:35:28;;;;;;;5.47;3.17;;;8.50;99.90;;;;;;4997811;28;20033;-76
2023/04/01 06:38:06;;;;;;;4.70;2.80;;;8.40;99.90;;;;;;4997227;28;20634;-76
2023/04/01 06:40:49;;;;;;;5.18;2.65;;;8.40;99.90;;;;;;4997210;28;20052;-76
2023/04/01 06:43:27;;;;;;;5.38;3.13;;;8.50;99.90;;;;;;4998870;28;20718;-75
2023/04/01 06:46:25;;;;;;;7.00;2.80;;;8.40;99.90;;;;;;5001619;28;20037;-76
2023/04/01 06:49:14;;;;;;;5.32;2.95;;;8.50;99.90;;;;;;4921470;28;20036;-76
2023/04/01 06:51:47;;;;;;;5.97;2.88;;;8.60;99.90;;;;;;4977374;28;20105;-76
2023/04/01 06:54:44;;;;;;;5.25;2.92;;;8.70;99.90;;;;;;4999547;28;20033;-75
2023/04/01 06:57:34;;;;;;;5.30;3.25;;;8.70;99.90;;;;;;4996039;28;20045;-76
2023/04/01 07:00:03;;;;;;;5.35;2.72;;;8.50;99.90;;;;;;4999896;28;20057;-76
2023/04/01 07:02:43;;;;;;;4.93;2.75;;;8.60;99.90;;;;;;4998372;28;20037;-76
2023/04/01 07:05:11;;;;;;;5.50;2.67;;;9.00;99.90;;;;;;5014449;28;20030;-76
2023/04/01 07:07:45;;;;;;;6.40;2.22;;;10.90;99.90;;;;;;4999997;28;20605;-76
2023/04/01 07:10:23;;;;;;;4.57;2.40;;;13.10;99.40;;;;;;4998869;28;20073;-76
2023/04/01 07:12:55;;;;;;;4.68;2.80;;;14.20;96.30;;;;;;5001005;28;20022;-75
2023/04/01 07:16:31;;;;;;;5.50;2.53;;;14.30;95.60;;;;;;5001934;28;20108;-74
2023/04/01 07:19:10;;;;;;;6.63;2.75;;;15.70;94.80;;;;;;4927008;29;20047;-76
2023/04/01 07:21:47;;;;;;;5.13;2.45;;;13.80;96.50;;;;;;4943594;28;20043;-75
2023/04/01 07:24:31;;;;;;;4.97;2.92;;;11.60;99.90;;;;;;4978557;28;20034;-74
2023/04/01 07:26:58;;;;;;;5.27;2.80;;;10.40;99.90;;;;;;5002518;28;20104;-77
2023/04/01 07:29:26;;;;;;;6.70;2.40;;;9.60;99.90;;;;;;4996356;28;20089;-74
2023/04/01 07:32:19;;;;;;;5.47;2.35;;;9.40;99.90;;;;;;5002107;28;20538;-76
2023/04/01 07:35:08;;;;;;;4.20;2.47;;;9.50;99.90;;;;;;5005129;28;20022;-76
2023/04/01 07:38:07;;;;;;;4.35;2.55;;;9.60;99.90;;;;;;4981870;28;20045;-75
2023/04/01 07:40:54;;;;;;;4.47;2.58;;;9.50;99.90;;;;;;5003453;28;20034;-75
2023/04/01 07:43:37;;;;;;;4.93;2.70;;;9.50;99.90;;;;;;5008259;28;21614;-75
2023/04/01 07:46:30;;;;;;;5.00;2.72;;;9.80;99.90;;;;;;5005932;28;20348;-74
2023/04/01 07:49:17;;;;;;;5.22;3.25;;;10.00;99.90;;;;;;4989626;28;20109;-75
2023/04/01 07:52:04;;;;;;;5.50;2.83;;;10.10;99.90;;;;;;4992966;28;20455;-75
2023/04/01 07:54:48;;;;;;;5.30;2.38;;;10.30;99.90;;;;;;5003878;28;20037;-76
2023/04/01 07:57:25;;;;;;;8.23;3.08;;;10.30;99.90;;;;;;5004800;28;20704;-75
2023/04/01 07:59:53;;;;;;;4.30;2.50;;;10.30;99.90;;;;;;5007311;28;20029;-75
2023/04/01 08:02:22;;;;;;;5.50;2.58;;;10.30;99.90;;;;;;4997243;28;20021;-75
2023/04/01 08:05:09;;;;;;;4.65;2.55;;;10.30;99.90;;;;;;4997460;28;20079;-73
2023/04/01 08:07:44;;;;;;;5.47;2.45;;;10.30;99.90;;;;;;5006140;28;20076;-76
2023/04/01 08:10:24;;;;;;;8.40;2.63;;;10.40;99.90;;;;;;5004277;28;20184;-75
2023/04/01 08:13:09;;;;;;;5.78;2.92;;;10.50;99.90;;;;;;5002160;28;20045;-76
2023/04/01 08:15:37;;;;;;;5.35;2.75;;;10.30;99.90;;;;;;5001572;28;20061;-75
2023/04/01 08:18:40;;;;;;;7.03;3.15;;;10.50;99.90;;;;;;4999333;28;20037;-75
2023/04/01 08:21:20;;;;;;;5.28;2.40;;;10.70;99.90;;;;;;4999355;28;20464;-75
2023/04/01 08:23:49;;;;;;;5.70;2.80;;;10.50;99.90;;;;;;5004867;28;20029;-75
2023/04/01 08:26:36;;;;;;;5.22;3.00;;;10.40;99.90;;;;;;5003774;28;20025;-76
2023/04/01 08:29:27;;;;;;;4.70;2.60;;;10.20;99.90;;;;;;5004104;28;20036;-75
2023/04/01 08:32:15;;;;;;;7.93;3.55;;;10.20;99.90;;;;;;4996988;28;20609;-75
2023/04/01 08:34:47;;;;;;;6.28;3.22;;;10.20;99.90;;;;;;5003557;28;20508;-74
2023/04/01 08:37:28;;;;;;;4.95;2.67;;;10.20;99.90;;;;;;5005720;28;20065;-74
2023/04/01 08:40:23;;;;;;;6.00;3.13;;;10.20;99.90;;;;;;5008426;28;20034;-75
2023/04/01 08:43:07;;;;;;;4.80;3.08;;;10.20;99.90;;;;;;4989897;28;20052;-75
2023/04/01 08:45:49;;;;;;;6.15;2.75;;;10.00;99.90;;;;;;5002890;28;20041;-75
2023/04/01 08:48:14;;;;;;;5.68;3.10;;;10.10;99.90;;;;;;4999782;28;20025;-75
2023/04/01 08:51:08;;;;;;;6.22;3.38;;;10.20;99.90;;;;;;5003815;28;20041;-75
2023/04/01 08:54:03;;;;;;;8.45;3.65;;;10.30;99.90;;;;;;5003507;28;20033;-76
2023/04/01 08:57:06;;;;;;;5.10;2.38;;;10.60;99.90;;;;;;5003665;28;20049;-76
2023/04/01 09:00:09;;;;;;;6.00;3.55;;;10.50;99.90;;;;;;5003487;28;20117;-74
2023/04/01 09:02:37;;;;;;;6.78;3.22;;;10.50;99.90;;;;;;5001533;28;20034;-76
2023/04/01 09:05:40;;;;;;;6.85;2.90;;;10.60;99.90;;;;;;5004379;28;20030;-76
2023/04/01 09:08:41;;;;;;;13.07;3.17;;;10.90;99.90;;;;;;5004021;28;21774;-76
2023/04/01 09:11:46;;;;;;;5.15;2.85;;;14.50;99.40;;;;;;4972125;28;20057;-75
2023/04/01 09:14:30;;;;;;;5.78;2.70;;;16.80;95.60;;;;;;5006697;28;20026;-75
2023/04/01 09:17:09;;;;;;;5.88;3.25;;;18.10;94.20;;;;;;4989061;28;20042;-74
2023/04/01 09:20:00;;;;;;;6.80;3.20;;;19.40;92.90;;;;;;5004355;28;20026;-77
2023/04/01 09:22:55;;;;;;;4.97;2.67;;;20.00;92.00;;;;;;5002092;28;20037;-76
2023/04/01 09:25:45;;;;;;;4.68;2.63;;;20.10;90.70;;;;;;5003368;28;20037;-75
2023/04/01 09:28:20;;;;;;;6.75;2.58;;;20.30;90.60;;;;;;5006015;28;20029;-77
2023/04/01 09:30:57;;;;;;;5.35;2.42;;;20.60;90.60;;;;;;5003980;28;20165;-76
2023/04/01 09:33:41;;;;;;;4.65;2.45;;;19.60;90.90;;;;;;4994919;28;20472;-78
2023/04/01 09:36:21;;;;;;;3.75;2.25;;;19.80;90.90;;;;;;5005378;28;20125;-76
2023/04/01 09:39:17;;;;;;;5.03;2.53;;;19.10;90.40;;;;;;5002446;28;20034;-76
2023/04/01 09:42:20;;;;;;;4.97;1.83;;;19.90;90.10;;;;;;5004582;28;20442;-76
2023/04/01 09:45:09;;;;;;;4.57;2.25;;;19.30;90.90;;;;;;4998070;28;20133;-76
2023/04/01 09:47:47;;;;;;;4.57;2.10;;;20.10;90.60;;;;;;4996988;28;20679;-76
2023/04/01 09:50:35;;;;;;;4.35;2.03;;;19.20;90.90;;;;;;5002947;28;20041;-75
2023/04/01 09:53:16;;;;;;;3.85;1.98;;;19.30;90.60;;;;;;5003964;28;20514;-77
2023/04/01 09:55:45;;;;;;;4.82;2.22;;;17.50;90.80;;;;;;4989383;28;20038;-75
2023/04/01 09:58:48;;;;;;;3.53;1.90;;;15.90;91.70;;;;;;5002527;28;20050;-77
2023/04/01 10:01:41;;;;;;;4.00;1.90;;;14.90;93.30;;;;;;5003246;28;20492;-76
2023/04/01 10:04:10;;;;;;;7.47;2.47;;;14.00;94.00;;;;;;4998248;28;20054;-75
2023/04/01 10:07:04;;;;;;;6.93;2.30;;;13.90;95.10;;;;;;4997320;28;20384;-78
2023/04/01 10:10:07;;;;;;;4.40;1.90;;;13.60;94.80;;;;;;4999258;28;20040;-79
2023/04/01 10:13:01;;;;;;;3.63;2.08;;;13.50;95.30;;;;;;4999482;28;20033;-75
2023/04/01 10:15:46;;;;;;;5.22;1.98;;;13.80;95.00;;;;;;5002122;28;20034;-80
2023/04/01 10:18:45;;;;;;;5.18;1.50;;;14.00;94.80;;;;;;4998066;28;20108;-75
2023/04/01 10:21:18;;;;;;;3.88;2.00;;;14.10;96.40;;;;;;5004288;28;20061;-76
2023/04/01 10:24:05;;;;;;;4.70;2.30;;;14.00;95.00;;;;;;5003262;28;20088;-77
2023/04/01 10:27:20;;;;;;;4.10;2.20;;;13.90;96.00;;;;;;5000707;28;20054;-76
2023/04/01 10:30:35;;;;;;;7.57;2.47;;;14.00;95.10;;;;;;4998614;28;20123;-77
2023/04/01 10:33:26;;;;;;;4.70;2.50;;;13.90;95.40;;;;;;4923060;29;20044;-76
2023/04/01 10:36:07;;;;;;;4.75;2.40;;;13.90;95.40;;;;;;5007103;28;20046;-76
2023/04/01 10:39:02;;;;;;;4.88;2.00;;;14.30;96.40;;;;;;5001898;28;20034;-76
2023/04/01 10:41:31;;;;;;;;;;;14.30;96.30;;;;;;5008503;28;20034;-77
2023/04/01 10:44:37;;;;;;;3.90;2.22;;;14.50;96.50;;;;;;5005490;28;20425;-77
2023/04/01 10:47:11;;;;;;;3.65;1.85;;;14.80;96.10;;;;;;4962497;28;20045;-77
2023/04/01 10:49:49;;;;;;;4.05;1.90;;;14.90;95.50;;;;;;5004548;28;20133;-77
2023/04/01 10:52:48;;;;;;;3.22;2.15;;;14.90;95.60;;;;;;4999588;28;20033;-77
2023/04/01 10:55:37;;;;;;;4.03;2.25;;;15.10;95.20;;;;;;5002094;28;20124;-76
2023/04/01 10:58:37;;;;;;;3.58;1.85;;;15.30;95.40;;;;;;5000853;28;20104;-77
2023/04/01 11:01:14;;;;;;;3.10;1.58;;;15.30;94.50;;;;;;5008559;28;20026;-77
2023/04/01 11:03:58;;;;;;;4.70;2.17;;;15.60;93.90;;;;;;5000337;28;20087;-77
2023/04/01 11:06:45;;;;;;;5.15;1.90;;;15.60;94.30;;;;;;5002549;28;20026;-77
2023/04/01 11:09:20;;;;;;;2.65;1.60;;;15.70;93.90;;;;;;5003398;28;20480;-77
2023/04/01 11:12:13;;;;;;;3.30;1.70;;;15.70;93.70;;;;;;5002443;28;20045;-77
2023/04/01 11:14:47;;;;;;;3.00;1.73;;;15.90;94.20;;;;;;5002141;28;20049;-78
2023/04/01 11:17:51;;;;;;;2.42;1.38;;;16.20;93.40;;;;;;5002968;28;20183;-78
2023/04/01 11:20:35;;;;;;;4.60;1.10;;;16.00;92.30;;;;;;5001994;28;20022;-77
2023/04/01 11:23:28;;;;;;;2.53;0.80;;;15.90;91.60;;;;;;5000618;28;20025;-78
2023/04/01 11:25:59;;;;;;;3.03;1.10;;;15.70;91.60;;;;;;5004738;28;20127;-77
2023/04/01 11:28:52;;;;;;;2.55;1.17;;;16.20;91.90;;;;;;5003024;28;20045;-77
2023/04/01 11:31:32;;;;;;;2.47;0.95;;;16.40;91.70;;;;;;5013213;28;20102;-77
2023/04/01 11:34:33;;;;;;;2.72;1.13;;;16.30;90.40;;;;;;5003785;28;20038;-77
2023/04/01 11:37:25;;;;;;;3.03;0.98;;;16.40;90.80;;;;;;4959450;28;20035;-78
2023/04/01 11:40:03;;;;;;;4.30;1.20;;;16.50;90.50;;;;;;4999054;28;20050;-77
2023/04/01 11:42:43;;;;;;;2.53;1.35;;;16.60;90.40;;;;;;5002534;28;20035;-77
2023/04/01 11:45:28;;;;;;;1.27;0.80;;;16.70;89.60;;;;;;5010714;28;20077;-78
2023/04/01 11:48:13;;;;;;;11.85;0.93;;;16.80;89.90;;;;;;5004169;28;20018;-77
2023/04/01 11:50:51;;;;;;;1.25;0.40;;;17.10;87.70;;;;;;4999165;28;20088;-77
2023/04/01 11:53:48;;;;;;;0.75;0.40;;;17.50;87.80;;;;;;5001977;28;20450;-77
2023/04/01 11:56:47;;;;;;;3.08;0.95;;;17.40;85.90;;;;;;5006790;28;20083;-77
2023/04/01 11:59:18;;;;;;;9.35;1.20;;;17.40;84.60;;;;;;4995116;28;20643;-78
2023/04/01 12:01:56;;;;;;;1.50;0.60;;;17.30;84.30;;;;;;5000241;28;20075;-76
2023/04/01 12:04:56;;;;;;;1.42;0.60;;;17.40;84.90;;;;;;5003360;28;20026;-77
2023/04/01 12:07:49;;;;;;;2.40;0.80;;;17.60;84.10;;;;;;5001993;28;20025;-76
2023/04/01 12:10:18;;;;;;;2.35;0.65;;;18.00;84.40;;;;;;5000935;28;20026;-77
2023/04/01 12:13:08;;;;;;;0.63;0.38;;;17.90;85.40;;;;;;5005486;28;20164;-77
2023/04/01 12:16:00;;;;;;;1.92;0.40;;;18.00;84.40;;;;;;5001977;28;20064;-77
2023/04/01 12:18:36;;;;;;;1.55;0.60;;;17.90;83.40;;;;;;4998593;28;20408;-77
2023/04/01 12:21:31;;;;;;;0.85;0.30;;;17.90;81.40;;;;;;5004531;28;20038;-77
2023/04/01 12:24:21;;;;;;;1.02;0.30;;;18.20;81.80;;;;;;5001292;28;20072;-77
2023/04/01 12:27:11;;;;;;;1.98;0.47;;;18.40;77.90;;;;;;5001117;28;20026;-77
2023/04/01 12:29:48;;;;;;;1.80;0.55;;;18.10;78.50;;;;;;5001102;28;20531;-78
2023/04/01 12:32:40;;;;;;;2.47;0.40;;;17.70;77.80;;;;;;5000687;28;20095;-77
2023/04/01 12:35:43;;;;;;;1.50;0.60;;;17.60;76.10;;;;;;5003460;28;20038;-76
2023/04/01 12:38:50;;;;;;;1.08;0.38;;;17.70;76.30;;;;;;4997939;28;20040;-77
2023/04/01 12:41:34;;;;;;;1.08;0.47;;;17.60;79.00;;;;;;4999365;28;20511;-78
2023/04/01 12:44:06;;;;;;;1.50;0.60;;;17.30;80.10;;;;;;5002492;28;20084;-76
2023/04/01 12:47:09;;;;;;;1.45;0.60;;;16.90;79.40;;;;;;5002394;28;20084;-77
2023/04/01 12:49:56;;;;;;;1.55;0.60;;;16.80;79.90;;;;;;5000224;28;20116;-77
2023/04/01 12:52:45;;;;;;;3.10;0.68;;;16.70;80.30;;;;;;5003161;28;20095;-76
2023/04/01 12:55:13;;;;;;;5.82;0.75;;;16.60;81.40;;;;;;4990083;28;20555;-77
2023/04/01 12:57:54;;;;;;;7.47;0.82;;;16.60;82.40;;;;;;5003607;28;20030;-77
2023/04/01 13:00:38;;;;;;;1.50;0.60;;;16.50;82.80;;;;;;5002123;28;20029;-77
2023/04/01 13:03:41;;;;;;;1.35;0.50;;;16.50;81.80;;;;;;5002985;28;20072;-77
2023/04/01 13:06:20;;;;;;;1.90;0.32;;;16.40;80.50;;;;;;5000825;28;20026;-78
2023/04/01 13:09:16;;;;;;;1.73;0.60;;;16.50;82.20;;;;;;5005381;28;20184;-77
2023/04/01 13:12:17;;;;;;;1.35;0.40;;;16.50;82.20;;;;;;4994142;28;20041;-77
2023/04/01 13:15:06;;;;;;;1.92;0.50;;;16.50;82.40;;;;;;5002034;28;20056;-78
2023/04/01 13:18:16;;;;;;;1.00;0.50;;;16.50;81.30;;;;;;5003819;28;20022;-77
2023/04/01 13:21:05;;;;;;;0.90;0.43;;;16.50;82.40;;;;;;4983425;28;20197;-77
2023/04/01 13:23:37;;;;;;;3.28;1.90;;;16.50;83.00;;;;;;5001477;28;20034;-77
2023/04/01 13:26:30;;;;;;;1.83;0.88;;;16.60;83.00;;;;;;5001844;28;20026;-77
2023/04/01 13:29:05;;;;;;;2.08;0.93;;;16.90;81.90;;;;;;4998252;28;20639;-77
2023/04/01 13:31:37;;;;;;;2.60;1.02;;;17.10;80.90;;;;;;5001848;28;20061;-75
2023/04/01 13:34:15;;;;;;;3.15;1.17;;;16.90;82.00;;;;;;5006580;28;20119;-76
2023/04/01 13:37:09;;;;;;;4.63;0.57;;;16.80;81.70;;;;;;5015393;28;20026;-75
2023/04/01 13:39:38;;;;;;;1.40;0.83;;;16.70;77.60;;;;;;5003230;28;20030;-76
2023/04/01 13:42:17;;;;;;;2.88;1.00;;;16.70;77.20;;;;;;5005468;28;20042;-76
2023/04/01 13:44:54;;;;;;;2.45;0.95;;;16.70;76.10;;;;;;5006436;28;20049;-77